sensor_id;sensor_type;location;lat;lon;timestamp;P1;durP1;ratioP1;P2;durP2;ratioP2
15317;SDS011;7759;52.528;13.346;2023-03-20T00:01:51;4.90;;;2.30;;
15317;SDS011;7759;52.528;13.346;2023-03-20T00:04:17;4.33;;;2.10;;
15317;SDS011;7759;52.528;13.346;2023-03-20T00:06:43;3.17;;;1.80;;
15317;SDS011;7759;52.528;13.346;2023-03-20T00:09:09;2.40;;;1.67;;
15317;SDS011;7759;52.528;13.346;2023-03-20T00:11:43;2.13;;;1.80;;
15317;SDS011;7759;52.528;13.346;2023-03-20T00:14:12;2.73;;;1.93;;
15317;SDS011;7759;52.528;13.346;2023-03-20T00:16:40;4.00;;;2.03;;
15317;SDS011;7759;52.528;13.346;2023-03-20T00:19:11;3.33;;;1.93;;
15317;SDS011;7759;52.528;13.346;2023-03-20T00:21:39;3.00;;;2.23;;
15317;SDS011;7759;52.528;13.346;2023-03-20T00:24:05;2.40;;;1.80;;
15317;SDS011;7759;52.528;13.346;2023-03-20T00:26:32;5.20;;;1.97;;
15317;SDS011;7759;52.528;13.346;2023-03-20T00:28:59;2.60;;;2.07;;
15317;SDS011;7759;52.528;13.346;2023-03-20T00:31:27;4.63;;;2.10;;
15317;SDS011;7759;52.528;13.346;2023-03-20T00:33:53;2.33;;;1.80;;
15317;SDS011;7759;52.528;13.346;2023-03-20T00:36:20;3.33;;;2.27;;
15317;SDS011;7759;52.528;13.346;2023-03-20T00:38:46;3.07;;;2.03;;
15317;SDS011;7759;52.528;13.346;2023-03-20T00:41:29;2.60;;;2.27;;
15317;SDS011;7759;52.528;13.346;2023-03-20T00:43:57;4.07;;;1.97;;
15317;SDS011;7759;52.528;13.346;2023-03-20T00:46:24;2.73;;;1.90;;
15317;SDS011;7759;52.528;13.346;2023-03-20T00:48:50;4.03;;;2.10;;
15317;SDS011;7759;52.528;13.346;2023-03-20T00:51:17;2.93;;;2.00;;
15317;SDS011;7759;52.528;13.346;2023-03-20T00:53:42;2.73;;;1.97;;
15317;SDS011;7759;52.528;13.346;2023-03-20T00:56:27;3.83;;;2.07;;
15317;SDS011;7759;52.528;13.346;2023-03-20T00:58:55;1.73;;;1.60;;
15317;SDS011;7759;52.528;13.346;2023-03-20T01:01:21;3.30;;;2.30;;
15317;SDS011;7759;52.528;13.346;2023-03-20T01:03:47;3.90;;;2.23;;
15317;SDS011;7759;52.528;13.346;2023-03-20T01:06:13;3.00;;;2.00;;
15317;SDS011;7759;52.528;13.346;2023-03-20T01:08:39;3.10;;;2.07;;
15317;SDS011;7759;52.528;13.346;2023-03-20T01:11:05;2.63;;;1.97;;
15317;SDS011;7759;52.528;13.346;2023-03-20T01:13:31;5.77;;;2.80;;
15317;SDS011;7759;52.528;13.346;2023-03-20T01:15:57;3.63;;;2.40;;
15317;SDS011;7759;52.528;13.346;2023-03-20T01:18:24;5.57;;;2.43;;
15317;SDS011;7759;52.528;13.346;2023-03-20T01:20:51;3.57;;;2.27;;
15317;SDS011;7759;52.528;13.346;2023-03-20T01:23:17;2.53;;;1.87;;
15317;SDS011;7759;52.528;13.346;2023-03-20T01:25:43;2.63;;;2.07;;
15317;SDS011;7759;52.528;13.346;2023-03-20T01:28:14;2.07;;;1.80;;
15317;SDS011;7759;52.528;13.346;2023-03-20T01:30:40;2.80;;;2.07;;
15317;SDS011;7759;52.528;13.346;2023-03-20T01:33:16;3.07;;;2.20;;
15317;SDS011;7759;52.528;13.346;2023-03-20T01:35:43;3.37;;;2.40;;
15317;SDS011;7759;52.528;13.346;2023-03-20T01:38:24;3.57;;;2.30;;
15317;SDS011;7759;52.528;13.346;2023-03-20T01:43:17;2.63;;;2.10;;
15317;SDS011;7759;52.528;13.346;2023-03-20T01:46:27;3.33;;;2.10;;
15317;SDS011;7759;52.528;13.346;2023-03-20T01:51:17;3.30;;;2.53;;
15317;SDS011;7759;52.528;13.346;2023-03-20T01:53:44;3.67;;;2.30;;
15317;SDS011;7759;52.528;13.346;2023-03-20T01:56:12;4.27;;;2.57;;
15317;SDS011;7759;52.528;13.346;2023-03-20T01:58:40;3.23;;;2.20;;
15317;SDS011;7759;52.528;13.346;2023-03-20T02:01:07;3.07;;;2.30;;
15317;SDS011;7759;52.528;13.346;2023-03-20T02:03:34;3.03;;;2.17;;
15317;SDS011;7759;52.528;13.346;2023-03-20T02:06:02;4.43;;;2.43;;
15317;SDS011;7759;52.528;13.346;2023-03-20T02:08:29;3.83;;;2.10;;
15317;SDS011;7759;52.528;13.346;2023-03-20T02:10:56;3.13;;;2.20;;
15317;SDS011;7759;52.528;13.346;2023-03-20T02:13:23;3.93;;;2.00;;
15317;SDS011;7759;52.528;13.346;2023-03-20T02:15:54;6.83;;;2.50;;
15317;SDS011;7759;52.528;13.346;2023-03-20T02:18:20;4.60;;;2.40;;
15317;SDS011;7759;52.528;13.346;2023-03-20T02:20:57;4.53;;;2.60;;
15317;SDS011;7759;52.528;13.346;2023-03-20T02:23:33;4.43;;;2.57;;
15317;SDS011;7759;52.528;13.346;2023-03-20T02:26:10;3.80;;;2.70;;
15317;SDS011;7759;52.528;13.346;2023-03-20T02:39:32;3.53;;;2.40;;
15317;SDS011;7759;52.528;13.346;2023-03-20T02:42:11;2.87;;;2.20;;
15317;SDS011;7759;52.528;13.346;2023-03-20T02:44:45;4.13;;;2.70;;
15317;SDS011;7759;52.528;13.346;2023-03-20T02:47:20;6.53;;;3.10;;
15317;SDS011;7759;52.528;13.346;2023-03-20T02:49:52;4.23;;;2.50;;
15317;SDS011;7759;52.528;13.346;2023-03-20T02:52:24;3.43;;;2.57;;
15317;SDS011;7759;52.528;13.346;2023-03-20T02:55:05;3.00;;;2.03;;
15317;SDS011;7759;52.528;13.346;2023-03-20T03:02:33;4.43;;;2.43;;
15317;SDS011;7759;52.528;13.346;2023-03-20T03:05:02;5.30;;;2.50;;
15317;SDS011;7759;52.528;13.346;2023-03-20T03:07:29;2.77;;;2.43;;
15317;SDS011;7759;52.528;13.346;2023-03-20T03:09:59;3.50;;;2.43;;
15317;SDS011;7759;52.528;13.346;2023-03-20T03:12:27;3.90;;;2.50;;
15317;SDS011;7759;52.528;13.346;2023-03-20T03:14:56;2.93;;;2.43;;
15317;SDS011;7759;52.528;13.346;2023-03-20T03:17:24;3.87;;;2.87;;
15317;SDS011;7759;52.528;13.346;2023-03-20T03:19:54;3.10;;;2.37;;
15317;SDS011;7759;52.528;13.346;2023-03-20T03:22:21;2.80;;;2.30;;
15317;SDS011;7759;52.528;13.346;2023-03-20T03:24:49;3.47;;;2.77;;
15317;SDS011;7759;52.528;13.346;2023-03-20T03:27:17;3.90;;;2.47;;
15317;SDS011;7759;52.528;13.346;2023-03-20T03:29:45;4.43;;;2.53;;
15317;SDS011;7759;52.528;13.346;2023-03-20T03:35:05;5.20;;;3.10;;
15317;SDS011;7759;52.528;13.346;2023-03-20T03:37:36;3.30;;;2.97;;
15317;SDS011;7759;52.528;13.346;2023-03-20T03:42:33;5.60;;;2.80;;
15317;SDS011;7759;52.528;13.346;2023-03-20T03:47:41;5.80;;;3.57;;
15317;SDS011;7759;52.528;13.346;2023-03-20T03:50:18;6.63;;;3.10;;
15317;SDS011;7759;52.528;13.346;2023-03-20T03:52:45;3.97;;;2.67;;
15317;SDS011;7759;52.528;13.346;2023-03-20T03:55:15;3.20;;;2.50;;
15317;SDS011;7759;52.528;13.346;2023-03-20T03:57:44;3.33;;;2.70;;
15317;SDS011;7759;52.528;13.346;2023-03-20T04:00:12;5.00;;;3.00;;
15317;SDS011;7759;52.528;13.346;2023-03-20T04:02:41;4.20;;;3.00;;
15317;SDS011;7759;52.528;13.346;2023-03-20T04:05:07;4.63;;;2.67;;
15317;SDS011;7759;52.528;13.346;2023-03-20T04:07:34;4.57;;;3.43;;
15317;SDS011;7759;52.528;13.346;2023-03-20T04:10:00;6.47;;;3.33;;
15317;SDS011;7759;52.528;13.346;2023-03-20T04:12:31;4.97;;;3.20;;
15317;SDS011;7759;52.528;13.346;2023-03-20T04:14:57;3.93;;;3.47;;
15317;SDS011;7759;52.528;13.346;2023-03-20T04:17:23;4.70;;;3.33;;
15317;SDS011;7759;52.528;13.346;2023-03-20T04:19:49;5.00;;;3.47;;
15317;SDS011;7759;52.528;13.346;2023-03-20T04:22:15;4.17;;;3.20;;
15317;SDS011;7759;52.528;13.346;2023-03-20T04:24:41;3.83;;;3.20;;
15317;SDS011;7759;52.528;13.346;2023-03-20T04:27:07;4.17;;;2.73;;
15317;SDS011;7759;52.528;13.346;2023-03-20T04:29:33;5.73;;;2.83;;
15317;SDS011;7759;52.528;13.346;2023-03-20T04:31:58;3.70;;;2.77;;
15317;SDS011;7759;52.528;13.346;2023-03-20T04:34:24;3.63;;;2.83;;
15317;SDS011;7759;52.528;13.346;2023-03-20T04:36:51;3.97;;;2.83;;
15317;SDS011;7759;52.528;13.346;2023-03-20T04:39:16;5.27;;;2.70;;
15317;SDS011;7759;52.528;13.346;2023-03-20T04:41:42;4.53;;;3.10;;
15317;SDS011;7759;52.528;13.346;2023-03-20T04:44:08;4.20;;;3.03;;
15317;SDS011;7759;52.528;13.346;2023-03-20T04:46:34;3.97;;;2.63;;
15317;SDS011;7759;52.528;13.346;2023-03-20T04:49:00;3.07;;;2.70;;
15317;SDS011;7759;52.528;13.346;2023-03-20T04:51:26;5.60;;;3.27;;
15317;SDS011;7759;52.528;13.346;2023-03-20T04:53:52;5.37;;;3.50;;
15317;SDS011;7759;52.528;13.346;2023-03-20T04:56:18;4.67;;;3.10;;
15317;SDS011;7759;52.528;13.346;2023-03-20T04:58:44;5.10;;;3.27;;
15317;SDS011;7759;52.528;13.346;2023-03-20T05:01:10;6.53;;;3.30;;
15317;SDS011;7759;52.528;13.346;2023-03-20T05:03:36;5.53;;;3.27;;
15317;SDS011;7759;52.528;13.346;2023-03-20T05:06:03;5.57;;;3.43;;
15317;SDS011;7759;52.528;13.346;2023-03-20T05:08:29;3.90;;;3.20;;
15317;SDS011;7759;52.528;13.346;2023-03-20T05:10:55;4.43;;;3.03;;
15317;SDS011;7759;52.528;13.346;2023-03-20T05:13:21;4.63;;;3.73;;
15317;SDS011;7759;52.528;13.346;2023-03-20T05:15:47;6.80;;;4.20;;
15317;SDS011;7759;52.528;13.346;2023-03-20T05:18:13;5.03;;;4.00;;
15317;SDS011;7759;52.528;13.346;2023-03-20T05:20:39;5.73;;;3.37;;
15317;SDS011;7759;52.528;13.346;2023-03-20T05:23:05;4.37;;;3.30;;
15317;SDS011;7759;52.528;13.346;2023-03-20T05:25:31;5.40;;;3.87;;
15317;SDS011;7759;52.528;13.346;2023-03-20T05:27:57;4.63;;;3.40;;
15317;SDS011;7759;52.528;13.346;2023-03-20T05:30:23;8.50;;;3.83;;
15317;SDS011;7759;52.528;13.346;2023-03-20T05:32:49;4.63;;;3.70;;
15317;SDS011;7759;52.528;13.346;2023-03-20T05:35:16;5.03;;;4.17;;
15317;SDS011;7759;52.528;13.346;2023-03-20T05:37:42;7.10;;;4.17;;
15317;SDS011;7759;52.528;13.346;2023-03-20T05:40:09;7.70;;;4.47;;
15317;SDS011;7759;52.528;13.346;2023-03-20T05:42:35;6.47;;;4.27;;
15317;SDS011;7759;52.528;13.346;2023-03-20T05:45:01;5.80;;;4.20;;
15317;SDS011;7759;52.528;13.346;2023-03-20T05:47:27;8.00;;;4.40;;
15317;SDS011;7759;52.528;13.346;2023-03-20T05:49:53;5.87;;;3.70;;
15317;SDS011;7759;52.528;13.346;2023-03-20T05:52:19;4.80;;;3.83;;
15317;SDS011;7759;52.528;13.346;2023-03-20T05:54:45;5.93;;;4.10;;
15317;SDS011;7759;52.528;13.346;2023-03-20T05:57:11;5.67;;;4.23;;
15317;SDS011;7759;52.528;13.346;2023-03-20T05:59:37;9.73;;;4.40;;
15317;SDS011;7759;52.528;13.346;2023-03-20T06:02:03;9.10;;;5.37;;
15317;SDS011;7759;52.528;13.346;2023-03-20T06:04:29;4.77;;;3.87;;
15317;SDS011;7759;52.528;13.346;2023-03-20T06:06:55;8.67;;;5.07;;
15317;SDS011;7759;52.528;13.346;2023-03-20T06:09:21;10.23;;;5.93;;
15317;SDS011;7759;52.528;13.346;2023-03-20T06:11:47;11.43;;;6.40;;
15317;SDS011;7759;52.528;13.346;2023-03-20T06:14:13;12.00;;;7.00;;
15317;SDS011;7759;52.528;13.346;2023-03-20T06:16:39;10.03;;;5.90;;
15317;SDS011;7759;52.528;13.346;2023-03-20T06:19:05;9.73;;;5.63;;
15317;SDS011;7759;52.528;13.346;2023-03-20T06:21:31;12.90;;;7.33;;
15317;SDS011;7759;52.528;13.346;2023-03-20T06:23:57;8.40;;;6.20;;
15317;SDS011;7759;52.528;13.346;2023-03-20T06:26:24;11.00;;;7.67;;
15317;SDS011;7759;52.528;13.346;2023-03-20T06:28:50;10.07;;;6.90;;
15317;SDS011;7759;52.528;13.346;2023-03-20T06:31:16;10.33;;;6.63;;
15317;SDS011;7759;52.528;13.346;2023-03-20T06:33:42;10.70;;;7.30;;
15317;SDS011;7759;52.528;13.346;2023-03-20T06:36:09;13.07;;;6.80;;
15317;SDS011;7759;52.528;13.346;2023-03-20T06:38:35;11.13;;;7.27;;
15317;SDS011;7759;52.528;13.346;2023-03-20T06:41:01;9.63;;;6.20;;
15317;SDS011;7759;52.528;13.346;2023-03-20T06:43:27;13.93;;;6.60;;
15317;SDS011;7759;52.528;13.346;2023-03-20T06:45:53;17.47;;;8.33;;
15317;SDS011;7759;52.528;13.346;2023-03-20T06:48:19;20.50;;;9.80;;
15317;SDS011;7759;52.528;13.346;2023-03-20T06:50:48;17.47;;;9.60;;
15317;SDS011;7759;52.528;13.346;2023-03-20T06:53:14;10.87;;;6.13;;
15317;SDS011;7759;52.528;13.346;2023-03-20T06:55:41;21.03;;;10.60;;
15317;SDS011;7759;52.528;13.346;2023-03-20T06:58:07;17.40;;;8.70;;
15317;SDS011;7759;52.528;13.346;2023-03-20T07:00:33;21.03;;;9.63;;
15317;SDS011;7759;52.528;13.346;2023-03-20T07:02:58;22.57;;;11.63;;
15317;SDS011;7759;52.528;13.346;2023-03-20T07:05:24;14.60;;;7.97;;
15317;SDS011;7759;52.528;13.346;2023-03-20T07:07:51;17.90;;;9.37;;
15317;SDS011;7759;52.528;13.346;2023-03-20T07:10:17;15.07;;;8.73;;
15317;SDS011;7759;52.528;13.346;2023-03-20T07:12:43;19.63;;;10.83;;
15317;SDS011;7759;52.528;13.346;2023-03-20T07:15:09;15.03;;;8.70;;
15317;SDS011;7759;52.528;13.346;2023-03-20T07:17:36;20.40;;;10.60;;
15317;SDS011;7759;52.528;13.346;2023-03-20T07:20:02;20.63;;;9.93;;
15317;SDS011;7759;52.528;13.346;2023-03-20T07:22:29;16.07;;;8.83;;
15317;SDS011;7759;52.528;13.346;2023-03-20T07:24:55;16.57;;;9.47;;
15317;SDS011;7759;52.528;13.346;2023-03-20T07:27:21;18.73;;;10.27;;
15317;SDS011;7759;52.528;13.346;2023-03-20T07:29:47;23.30;;;10.50;;
15317;SDS011;7759;52.528;13.346;2023-03-20T07:32:14;22.00;;;10.87;;
15317;SDS011;7759;52.528;13.346;2023-03-20T07:34:40;17.93;;;10.23;;
15317;SDS011;7759;52.528;13.346;2023-03-20T07:37:06;13.93;;;8.30;;
15317;SDS011;7759;52.528;13.346;2023-03-20T07:39:32;13.13;;;7.43;;
15317;SDS011;7759;52.528;13.346;2023-03-20T07:41:58;9.90;;;5.50;;
15317;SDS011;7759;52.528;13.346;2023-03-20T07:44:24;14.07;;;7.13;;
15317;SDS011;7759;52.528;13.346;2023-03-20T07:46:50;15.80;;;7.43;;
15317;SDS011;7759;52.528;13.346;2023-03-20T07:49:16;16.70;;;8.60;;
15317;SDS011;7759;52.528;13.346;2023-03-20T07:51:43;15.47;;;7.70;;
15317;SDS011;7759;52.528;13.346;2023-03-20T07:54:09;12.30;;;6.43;;
15317;SDS011;7759;52.528;13.346;2023-03-20T07:56:35;22.93;;;8.97;;
15317;SDS011;7759;52.528;13.346;2023-03-20T07:59:01;14.30;;;7.30;;
15317;SDS011;7759;52.528;13.346;2023-03-20T08:01:26;11.73;;;6.03;;
15317;SDS011;7759;52.528;13.346;2023-03-20T08:03:52;12.97;;;6.07;;
15317;SDS011;7759;52.528;13.346;2023-03-20T08:06:18;16.03;;;7.60;;
15317;SDS011;7759;52.528;13.346;2023-03-20T08:08:44;13.10;;;5.97;;
15317;SDS011;7759;52.528;13.346;2023-03-20T08:11:11;7.07;;;4.47;;
15317;SDS011;7759;52.528;13.346;2023-03-20T08:13:37;14.17;;;6.50;;
15317;SDS011;7759;52.528;13.346;2023-03-20T08:16:03;12.07;;;6.40;;
15317;SDS011;7759;52.528;13.346;2023-03-20T08:18:29;16.10;;;8.33;;
15317;SDS011;7759;52.528;13.346;2023-03-20T08:20:55;10.43;;;5.23;;
15317;SDS011;7759;52.528;13.346;2023-03-20T08:23:21;14.70;;;7.70;;
15317;SDS011;7759;52.528;13.346;2023-03-20T08:25:47;13.10;;;6.60;;
15317;SDS011;7759;52.528;13.346;2023-03-20T08:28:13;16.60;;;7.43;;
15317;SDS011;7759;52.528;13.346;2023-03-20T08:30:39;19.20;;;8.47;;
15317;SDS011;7759;52.528;13.346;2023-03-20T08:33:05;22.00;;;10.13;;
15317;SDS011;7759;52.528;13.346;2023-03-20T08:35:31;19.47;;;8.70;;
15317;SDS011;7759;52.528;13.346;2023-03-20T08:37:57;7.63;;;4.90;;
15317;SDS011;7759;52.528;13.346;2023-03-20T08:40:23;11.33;;;6.17;;
15317;SDS011;7759;52.528;13.346;2023-03-20T08:42:49;15.37;;;7.27;;
15317;SDS011;7759;52.528;13.346;2023-03-20T08:45:15;21.50;;;9.63;;
15317;SDS011;7759;52.528;13.346;2023-03-20T08:47:41;15.27;;;8.17;;
15317;SDS011;7759;52.528;13.346;2023-03-20T08:50:07;22.43;;;10.70;;
15317;SDS011;7759;52.528;13.346;2023-03-20T08:52:33;14.97;;;7.77;;
15317;SDS011;7759;52.528;13.346;2023-03-20T08:54:59;18.90;;;9.33;;
15317;SDS011;7759;52.528;13.346;2023-03-20T08:57:25;15.17;;;7.17;;
15317;SDS011;7759;52.528;13.346;2023-03-20T08:59:51;11.53;;;6.57;;
15317;SDS011;7759;52.528;13.346;2023-03-20T09:02:17;15.47;;;8.27;;
15317;SDS011;7759;52.528;13.346;2023-03-20T09:04:43;13.60;;;7.10;;
15317;SDS011;7759;52.528;13.346;2023-03-20T09:07:08;13.17;;;6.47;;
15317;SDS011;7759;52.528;13.346;2023-03-20T09:09:35;20.43;;;9.13;;
15317;SDS011;7759;52.528;13.346;2023-03-20T09:12:01;19.77;;;9.17;;
15317;SDS011;7759;52.528;13.346;2023-03-20T09:14:27;16.23;;;7.27;;
15317;SDS011;7759;52.528;13.346;2023-03-20T09:16:53;13.27;;;6.43;;
15317;SDS011;7759;52.528;13.346;2023-03-20T09:19:19;12.30;;;5.97;;
15317;SDS011;7759;52.528;13.346;2023-03-20T09:21:45;8.73;;;4.90;;
15317;SDS011;7759;52.528;13.346;2023-03-20T09:24:11;11.17;;;5.57;;
15317;SDS011;7759;52.528;13.346;2023-03-20T09:26:37;13.03;;;6.73;;
15317;SDS011;7759;52.528;13.346;2023-03-20T09:29:04;14.93;;;7.03;;
15317;SDS011;7759;52.528;13.346;2023-03-20T09:31:30;17.40;;;8.30;;
15317;SDS011;7759;52.528;13.346;2023-03-20T09:33:56;12.60;;;5.97;;
15317;SDS011;7759;52.528;13.346;2023-03-20T09:36:22;9.33;;;4.57;;
15317;SDS011;7759;52.528;13.346;2023-03-20T09:38:48;9.53;;;4.90;;
15317;SDS011;7759;52.528;13.346;2023-03-20T09:41:16;12.50;;;6.23;;
15317;SDS011;7759;52.528;13.346;2023-03-20T09:48:53;9.40;;;5.27;;
15317;SDS011;7759;52.528;13.346;2023-03-20T09:51:30;10.20;;;4.13;;
15317;SDS011;7759;52.528;13.346;2023-03-20T09:54:00;6.53;;;4.23;;
15317;SDS011;7759;52.528;13.346;2023-03-20T09:56:28;6.83;;;3.53;;
15317;SDS011;7759;52.528;13.346;2023-03-20T09:58:55;8.90;;;5.00;;
15317;SDS011;7759;52.528;13.346;2023-03-20T10:01:23;9.63;;;5.13;;
15317;SDS011;7759;52.528;13.346;2023-03-20T10:03:52;11.70;;;5.80;;
15317;SDS011;7759;52.528;13.346;2023-03-20T10:06:19;7.17;;;3.83;;
15317;SDS011;7759;52.528;13.346;2023-03-20T10:08:45;10.13;;;4.80;;
15317;SDS011;7759;52.528;13.346;2023-03-20T10:14:06;9.90;;;4.70;;
15317;SDS011;7759;52.528;13.346;2023-03-20T10:16:59;6.13;;;3.13;;
15317;SDS011;7759;52.528;13.346;2023-03-20T10:22:05;6.63;;;3.97;;
15317;SDS011;7759;52.528;13.346;2023-03-20T10:24:43;8.77;;;4.33;;
15317;SDS011;7759;52.528;13.346;2023-03-20T10:27:14;11.90;;;5.00;;
15317;SDS011;7759;52.528;13.346;2023-03-20T10:29:45;9.33;;;5.17;;
15317;SDS011;7759;52.528;13.346;2023-03-20T10:35:13;9.83;;;4.60;;
15317;SDS011;7759;52.528;13.346;2023-03-20T10:37:50;6.63;;;3.73;;
15317;SDS011;7759;52.528;13.346;2023-03-20T10:40:25;11.77;;;4.80;;
15317;SDS011;7759;52.528;13.346;2023-03-20T10:42:53;6.23;;;3.70;;
15317;SDS011;7759;52.528;13.346;2023-03-20T10:45:24;6.87;;;3.57;;
15317;SDS011;7759;52.528;13.346;2023-03-20T10:47:54;9.83;;;4.67;;
15317;SDS011;7759;52.528;13.346;2023-03-20T10:50:30;7.47;;;3.73;;
15317;SDS011;7759;52.528;13.346;2023-03-20T10:52:57;9.17;;;4.27;;
15317;SDS011;7759;52.528;13.346;2023-03-20T10:55:28;7.60;;;3.60;;
15317;SDS011;7759;52.528;13.346;2023-03-20T10:58:10;9.87;;;4.23;;
15317;SDS011;7759;52.528;13.346;2023-03-20T11:00:39;5.70;;;3.40;;
15317;SDS011;7759;52.528;13.346;2023-03-20T11:03:05;5.73;;;3.63;;
15317;SDS011;7759;52.528;13.346;2023-03-20T11:05:35;7.23;;;3.60;;
15317;SDS011;7759;52.528;13.346;2023-03-20T11:08:03;7.80;;;3.83;;
15317;SDS011;7759;52.528;13.346;2023-03-20T11:10:31;4.77;;;3.00;;
15317;SDS011;7759;52.528;13.346;2023-03-20T11:12:57;7.13;;;3.73;;
15317;SDS011;7759;52.528;13.346;2023-03-20T11:15:32;8.80;;;3.57;;
15317;SDS011;7759;52.528;13.346;2023-03-20T11:17:59;6.27;;;3.00;;
15317;SDS011;7759;52.528;13.346;2023-03-20T11:20:26;8.47;;;4.00;;
15317;SDS011;7759;52.528;13.346;2023-03-20T11:23:02;10.57;;;4.90;;
15317;SDS011;7759;52.528;13.346;2023-03-20T11:25:33;7.33;;;3.33;;
15317;SDS011;7759;52.528;13.346;2023-03-20T11:30:44;3.50;;;2.13;;
15317;SDS011;7759;52.528;13.346;2023-03-20T11:33:11;7.83;;;3.27;;
15317;SDS011;7759;52.528;13.346;2023-03-20T11:35:37;7.00;;;3.17;;
15317;SDS011;7759;52.528;13.346;2023-03-20T11:38:13;6.67;;;4.07;;
15317;SDS011;7759;52.528;13.346;2023-03-20T11:40:40;9.43;;;4.43;;
15317;SDS011;7759;52.528;13.346;2023-03-20T11:43:13;6.90;;;3.50;;
15317;SDS011;7759;52.528;13.346;2023-03-20T11:45:46;4.67;;;2.73;;
15317;SDS011;7759;52.528;13.346;2023-03-20T11:48:17;5.60;;;2.93;;
15317;SDS011;7759;52.528;13.346;2023-03-20T11:50:48;12.40;;;4.57;;
15317;SDS011;7759;52.528;13.346;2023-03-20T11:53:27;9.27;;;4.83;;
15317;SDS011;7759;52.528;13.346;2023-03-20T11:56:03;9.23;;;4.10;;
15317;SDS011;7759;52.528;13.346;2023-03-20T11:58:30;6.50;;;3.37;;
15317;SDS011;7759;52.528;13.346;2023-03-20T12:00:56;7.87;;;4.23;;
15317;SDS011;7759;52.528;13.346;2023-03-20T12:06:06;7.17;;;3.80;;
15317;SDS011;7759;52.528;13.346;2023-03-20T12:08:33;6.40;;;3.33;;
15317;SDS011;7759;52.528;13.346;2023-03-20T12:11:16;7.73;;;3.50;;
15317;SDS011;7759;52.528;13.346;2023-03-20T12:13:43;8.27;;;4.33;;
15317;SDS011;7759;52.528;13.346;2023-03-20T12:16:14;4.10;;;2.63;;
15317;SDS011;7759;52.528;13.346;2023-03-20T12:18:47;6.30;;;3.80;;
15317;SDS011;7759;52.528;13.346;2023-03-20T12:21:23;8.70;;;3.70;;
15317;SDS011;7759;52.528;13.346;2023-03-20T12:24:12;7.50;;;4.00;;
15317;SDS011;7759;52.528;13.346;2023-03-20T12:32:20;9.07;;;4.40;;
15317;SDS011;7759;52.528;13.346;2023-03-20T12:34:58;5.07;;;2.67;;
15317;SDS011;7759;52.528;13.346;2023-03-20T12:37:27;7.73;;;4.20;;
15317;SDS011;7759;52.528;13.346;2023-03-20T12:39:54;15.37;;;8.23;;
15317;SDS011;7759;52.528;13.346;2023-03-20T12:42:34;16.93;;;5.83;;
15317;SDS011;7759;52.528;13.346;2023-03-20T12:45:05;10.03;;;5.80;;
15317;SDS011;7759;52.528;13.346;2023-03-20T12:50:28;6.67;;;3.87;;
15317;SDS011;7759;52.528;13.346;2023-03-20T12:53:00;6.93;;;3.43;;
15317;SDS011;7759;52.528;13.346;2023-03-20T12:55:40;10.40;;;4.77;;
15317;SDS011;7759;52.528;13.346;2023-03-20T12:58:18;9.70;;;5.27;;
15317;SDS011;7759;52.528;13.346;2023-03-20T13:00:55;9.93;;;4.83;;
15317;SDS011;7759;52.528;13.346;2023-03-20T13:14:13;7.80;;;4.93;;
15317;SDS011;7759;52.528;13.346;2023-03-20T13:16:44;12.13;;;5.47;;
15317;SDS011;7759;52.528;13.346;2023-03-20T13:19:16;10.93;;;5.70;;
15317;SDS011;7759;52.528;13.346;2023-03-20T13:21:57;9.07;;;4.67;;
15317;SDS011;7759;52.528;13.346;2023-03-20T13:24:48;11.80;;;5.60;;
15317;SDS011;7759;52.528;13.346;2023-03-20T13:27:33;9.07;;;5.20;;
15317;SDS011;7759;52.528;13.346;2023-03-20T13:32:45;10.93;;;5.67;;
15317;SDS011;7759;52.528;13.346;2023-03-20T13:35:23;9.60;;;5.20;;
15317;SDS011;7759;52.528;13.346;2023-03-20T13:37:54;12.53;;;6.10;;
15317;SDS011;7759;52.528;13.346;2023-03-20T13:40:25;10.10;;;5.60;;
15317;SDS011;7759;52.528;13.346;2023-03-20T13:45:27;11.57;;;6.53;;
15317;SDS011;7759;52.528;13.346;2023-03-20T13:47:53;10.27;;;5.03;;
15317;SDS011;7759;52.528;13.346;2023-03-20T13:50:24;6.73;;;3.80;;
15317;SDS011;7759;52.528;13.346;2023-03-20T13:52:59;10.47;;;4.53;;
15317;SDS011;7759;52.528;13.346;2023-03-20T13:55:36;6.50;;;3.77;;
15317;SDS011;7759;52.528;13.346;2023-03-20T13:58:12;13.13;;;5.47;;
15317;SDS011;7759;52.528;13.346;2023-03-20T14:00:50;7.97;;;3.90;;
15317;SDS011;7759;52.528;13.346;2023-03-20T14:03:24;9.83;;;5.83;;
15317;SDS011;7759;52.528;13.346;2023-03-20T14:05:52;8.67;;;5.33;;
15317;SDS011;7759;52.528;13.346;2023-03-20T14:08:19;7.53;;;3.60;;
15317;SDS011;7759;52.528;13.346;2023-03-20T14:10:45;9.10;;;4.03;;
15317;SDS011;7759;52.528;13.346;2023-03-20T14:13:13;7.33;;;4.40;;
15317;SDS011;7759;52.528;13.346;2023-03-20T14:15:44;8.23;;;3.70;;
15317;SDS011;7759;52.528;13.346;2023-03-20T14:18:16;7.97;;;4.07;;
15317;SDS011;7759;52.528;13.346;2023-03-20T14:20:43;8.03;;;4.17;;
15317;SDS011;7759;52.528;13.346;2023-03-20T14:23:16;7.30;;;3.87;;
15317;SDS011;7759;52.528;13.346;2023-03-20T14:25:43;8.37;;;3.77;;
15317;SDS011;7759;52.528;13.346;2023-03-20T14:30:39;5.73;;;3.67;;
15317;SDS011;7759;52.528;13.346;2023-03-20T14:35:38;10.13;;;5.47;;
15317;SDS011;7759;52.528;13.346;2023-03-20T14:40:51;9.33;;;5.23;;
15317;SDS011;7759;52.528;13.346;2023-03-20T14:43:29;11.07;;;4.93;;
15317;SDS011;7759;52.528;13.346;2023-03-20T14:45:59;7.50;;;3.53;;
15317;SDS011;7759;52.528;13.346;2023-03-20T14:48:34;5.47;;;3.20;;
15317;SDS011;7759;52.528;13.346;2023-03-20T14:51:22;6.90;;;4.10;;
15317;SDS011;7759;52.528;13.346;2023-03-20T14:53:55;9.63;;;5.50;;
15317;SDS011;7759;52.528;13.346;2023-03-20T14:56:41;8.40;;;4.60;;
15317;SDS011;7759;52.528;13.346;2023-03-20T14:59:07;10.33;;;5.23;;
15317;SDS011;7759;52.528;13.346;2023-03-20T15:04:08;14.90;;;5.70;;
15317;SDS011;7759;52.528;13.346;2023-03-20T15:06:41;9.70;;;4.87;;
15317;SDS011;7759;52.528;13.346;2023-03-20T15:09:09;8.87;;;4.37;;
15317;SDS011;7759;52.528;13.346;2023-03-20T15:11:35;7.20;;;3.47;;
15317;SDS011;7759;52.528;13.346;2023-03-20T15:14:03;6.17;;;3.83;;
15317;SDS011;7759;52.528;13.346;2023-03-20T15:16:31;11.27;;;5.50;;
15317;SDS011;7759;52.528;13.346;2023-03-20T15:18:59;12.60;;;6.13;;
15317;SDS011;7759;52.528;13.346;2023-03-20T15:23:56;11.63;;;6.37;;
15317;SDS011;7759;52.528;13.346;2023-03-20T15:26:23;8.60;;;4.37;;
15317;SDS011;7759;52.528;13.346;2023-03-20T15:28:49;8.73;;;5.00;;
15317;SDS011;7759;52.528;13.346;2023-03-20T15:31:19;6.90;;;3.93;;
15317;SDS011;7759;52.528;13.346;2023-03-20T15:33:46;7.80;;;4.03;;
15317;SDS011;7759;52.528;13.346;2023-03-20T15:36:20;7.83;;;4.60;;
15317;SDS011;7759;52.528;13.346;2023-03-20T15:38:47;8.93;;;4.60;;
15317;SDS011;7759;52.528;13.346;2023-03-20T15:41:23;8.97;;;4.33;;
15317;SDS011;7759;52.528;13.346;2023-03-20T15:43:50;7.80;;;3.93;;
15317;SDS011;7759;52.528;13.346;2023-03-20T15:46:16;9.27;;;4.57;;
15317;SDS011;7759;52.528;13.346;2023-03-20T15:48:49;7.37;;;3.97;;
15317;SDS011;7759;52.528;13.346;2023-03-20T15:51:15;6.03;;;3.00;;
15317;SDS011;7759;52.528;13.346;2023-03-20T15:53:42;5.73;;;3.77;;
15317;SDS011;7759;52.528;13.346;2023-03-20T15:56:19;8.23;;;4.70;;
15317;SDS011;7759;52.528;13.346;2023-03-20T15:58:49;6.00;;;3.70;;
15317;SDS011;7759;52.528;13.346;2023-03-20T16:01:20;13.07;;;5.53;;
15317;SDS011;7759;52.528;13.346;2023-03-20T16:03:46;10.33;;;5.43;;
15317;SDS011;7759;52.528;13.346;2023-03-20T16:06:15;11.70;;;6.00;;
15317;SDS011;7759;52.528;13.346;2023-03-20T16:08:42;15.77;;;6.87;;
15317;SDS011;7759;52.528;13.346;2023-03-20T16:11:14;11.47;;;5.50;;
15317;SDS011;7759;52.528;13.346;2023-03-20T16:13:44;9.97;;;5.23;;
15317;SDS011;7759;52.528;13.346;2023-03-20T16:16:21;10.10;;;5.20;;
15317;SDS011;7759;52.528;13.346;2023-03-20T16:18:48;11.60;;;5.90;;